Time;durP1;ratioP1;P1;durP2;ratioP2;P2;SDS_P1;SDS_P2;PMS_P1;PMS_P2;Temp;Humidity;BMP_temperature;BMP_pressure;BME280_temperature;BME280_humidity;BME280_pressure;Samples;Min_cycle;Max_cycle;Signal;HPM_P1;HPM_P2
2023/06/18 00:00:50;;;;;;;6.97;4.90;;;;;;;23.49;41.22;101215.56;5212685;28;20044;-66
2023/06/18 00:03:22;;;;;;;6.00;4.67;;;;;;;23.39;42.04;101201.78;5210099;28;20029;-66
2023/06/18 00:05:54;;;;;;;5.60;4.63;;;;;;;23.32;42.74;101198.28;5216752;28;20467;-66
2023/06/18 00:08:25;;;;;;;5.17;4.57;;;;;;;23.29;42.22;101201.34;5214791;28;20041;-66
2023/06/18 00:10:56;;;;;;;9.97;5.07;;;;;;;23.30;42.68;101211.03;5216002;28;20029;-66
2023/06/18 00:13:27;;;;;;;6.60;4.80;;;;;;;23.24;42.91;101201.16;5218469;28;20026;-66
2023/06/18 00:15:59;;;;;;;8.20;5.17;;;;;;;23.16;43.05;101204.84;5213249;28;20034;-66
2023/06/18 00:18:32;;;;;;;8.23;5.07;;;;;;;23.27;42.83;101201.56;5213682;28;20034;-66
2023/06/18 00:21:07;;;;;;;5.47;4.95;;;;;;;23.05;43.40;101195.59;5219722;28;20023;-66
2023/06/18 00:23:38;;;;;;;7.95;5.28;;;;;;;23.04;43.55;101193.94;5218965;28;20279;-66
2023/06/18 00:26:10;;;;;;;7.57;5.33;;;;;;;23.10;43.59;101191.47;5214678;28;20042;-66
2023/06/18 00:28:41;;;;;;;6.00;4.50;;;;;;;23.08;43.73;101189.00;5218368;28;20053;-66
2023/06/18 00:31:13;;;;;;;9.07;5.57;;;;;;;23.11;43.76;101180.59;5211152;28;20049;-66
2023/06/18 00:33:44;;;;;;;5.82;4.88;;;;;;;23.11;43.81;101187.75;5196318;28;20026;-66
2023/06/18 00:36:16;;;;;;;7.73;5.17;;;;;;;23.06;43.64;101194.53;5215167;28;20029;-66
2023/06/18 00:38:51;;;;;;;6.20;5.43;;;;;;;22.92;44.18;101181.38;5218894;28;20026;-65
2023/06/18 00:41:24;;;;;;;8.27;5.25;;;;;;;22.91;44.28;101177.88;5216255;28;20038;-66
2023/06/18 00:43:57;;;;;;;7.35;5.22;;;;;;;22.82;44.26;101181.75;5221359;28;20050;-66
2023/06/18 00:46:35;;;;;;;6.65;5.72;;;;;;;22.77;44.67;101176.19;5214604;28;20600;-66
2023/06/18 00:49:08;;;;;;;8.77;6.00;;;;;;;22.72;45.40;101174.09;5217431;28;20029;-66
2023/06/18 00:51:39;;;;;;;7.82;5.68;;;;;;;22.75;45.20;101172.91;5215406;28;20029;-66
2023/06/18 00:54:13;;;;;;;6.63;5.50;;;;;;;22.83;44.97;101162.84;5216805;28;20040;-66
2023/06/18 00:56:52;;;;;;;8.18;5.60;;;;;;;22.65;45.81;101167.09;5218555;28;20083;-66
2023/06/18 00:59:23;;;;;;;7.03;5.38;;;;;;;22.56;46.04;101167.28;5215321;28;20124;-66
2023/06/18 01:01:56;;;;;;;6.67;5.40;;;;;;;22.64;45.43;101160.13;5217179;28;20026;-66
2023/06/18 01:04:32;;;;;;;7.00;5.25;;;;;;;22.59;45.51;101161.56;5212422;28;20022;-66
2023/06/18 01:07:12;;;;;;;8.27;5.18;;;;;;;22.49;46.13;101157.63;5214349;28;20042;-66
2023/06/18 01:09:44;;;;;;;8.23;5.55;;;;;;;22.46;46.14;101148.16;5213136;28;20120;-66
2023/06/18 01:12:15;;;;;;;7.63;5.43;;;;;;;22.40;46.72;101161.50;5212294;28;20131;-66
2023/06/18 01:14:50;;;;;;;7.00;5.37;;;;;;;22.43;46.30;101158.44;5213838;28;20142;-66
2023/06/18 01:17:23;;;;;;;7.82;4.80;;;;;;;22.36;46.81;101160.25;5218835;28;20044;-66
2023/06/18 01:19:57;;;;;;;;;;;;;;;23.11;43.97;101161.88;5218778;28;20034;-66
2023/06/18 01:22:32;;;;;;;6.60;5.10;;;;;;;22.39;47.38;101160.69;5220591;28;19913;-66
2023/06/18 01:25:06;;;;;;;7.18;5.47;;;;;;;22.26;47.26;101153.44;5216964;28;20026;-66
2023/06/18 01:27:41;;;;;;;6.50;5.68;;;;;;;22.22;47.28;101162.06;5212712;28;20042;-66
2023/06/18 01:30:13;;;;;;;7.80;5.55;;;;;;;22.09;47.85;101165.47;5213028;28;20487;-66
2023/06/18 01:32:45;;;;;;;7.45;6.00;;;;;;;22.16;47.76;101155.69;5214250;28;20546;-66
2023/06/18 01:35:16;;;;;;;7.00;5.60;;;;;;;22.03;48.26;101163.56;5219808;28;20043;-66
2023/06/18 01:38:09;;;;;;;6.93;5.77;;;;;;;22.25;47.67;101153.66;5215039;28;20034;-66
2023/06/18 01:40:46;;;;;;;7.95;5.45;;;;;;;21.93;49.03;101150.56;5216089;28;20426;-66
2023/06/18 01:43:30;;;;;;;7.93;5.35;;;;;;;21.97;49.12;101141.19;5212966;28;20046;-66
2023/06/18 01:46:10;;;;;;;7.20;5.55;;;;;;;21.82;49.64;101143.13;5210140;28;20029;-67
2023/06/18 01:48:48;;;;;;;7.43;5.82;;;;;;;21.74;49.90;101141.44;5215614;28;20026;-66
2023/06/18 01:51:22;;;;;;;5.97;5.28;;;;;;;21.65;50.04;101144.47;5214065;28;20025;-66
2023/06/18 01:53:59;;;;;;;6.15;5.50;;;;;;;21.67;50.11;101150.44;5215670;28;20029;-66
2023/06/18 01:56:31;;;;;;;7.47;5.20;;;;;;;21.45;51.00;101150.50;5218512;28;20021;-66
2023/06/18 01:59:03;;;;;;;7.78;6.13;;;;;;;21.38;51.65;101144.31;5209368;28;20739;-66
2023/06/18 02:01:34;;;;;;;7.03;6.07;;;;;;;21.34;52.71;101143.03;5215258;28;20276;-66
2023/06/18 02:04:06;;;;;;;9.50;5.87;;;;;;;21.27;53.75;101136.81;5215803;28;20034;-66
2023/06/18 02:06:37;;;;;;;6.70;5.50;;;;;;;21.20;53.87;101138.59;5217753;28;20087;-66
2023/06/18 02:09:08;;;;;;;6.73;5.70;;;;;;;21.13;54.29;101139.34;5216930;28;20045;-66
2023/06/18 02:11:40;;;;;;;6.87;5.63;;;;;;;21.04;54.42;101137.84;5213024;28;20410;-66
2023/06/18 02:14:11;;;;;;;6.43;5.73;;;;;;;21.01;54.22;101130.22;5215541;28;20026;-66
2023/06/18 02:16:42;;;;;;;9.67;6.20;;;;;;;20.93;54.98;101127.72;5212770;28;20485;-66
2023/06/18 02:19:14;;;;;;;7.20;5.80;;;;;;;20.91;55.05;101129.75;5214131;28;20478;-66
2023/06/18 02:21:45;;;;;;;8.40;6.73;;;;;;;20.99;54.26;101134.13;5212552;28;20034;-66
2023/06/18 02:24:16;;;;;;;6.53;5.87;;;;;;;20.82;55.66;101129.03;5213429;28;20029;-66
2023/06/18 02:26:48;;;;;;;7.70;6.73;;;;;;;20.86;54.62;101129.47;5216289;28;20033;-66
2023/06/18 02:29:19;;;;;;;9.03;6.03;;;;;;;20.80;56.32;101127.59;5216806;28;20398;-66
2023/06/18 02:31:50;;;;;;;8.53;6.57;;;;;;;20.71;56.65;101126.06;5209442;28;20581;-66
2023/06/18 02:34:27;;;;;;;9.47;6.77;;;;;;;20.76;55.59;101124.50;5211321;28;20026;-66
2023/06/18 02:36:58;;;;;;;8.50;6.72;;;;;;;20.72;56.28;101117.91;5214799;28;20443;-66
2023/06/18 02:39:29;;;;;;;7.57;6.80;;;;;;;20.71;56.00;101113.56;5211531;28;20032;-66
2023/06/18 02:42:01;;;;;;;8.40;7.40;;;;;;;20.67;56.07;101106.16;5218010;28;20026;-66
2023/06/18 02:44:32;;;;;;;9.47;7.77;;;;;;;20.57;56.68;101109.97;5213007;28;20050;-66
2023/06/18 02:47:07;;;;;;;9.23;7.07;;;;;;;20.56;57.12;101118.94;5213200;28;20478;-66
2023/06/18 02:49:38;;;;;;;9.38;7.53;;;;;;;20.38;58.62;101124.69;5210849;28;20065;-65
2023/06/18 02:52:10;;;;;;;8.93;7.63;;;;;;;20.33;59.13;101110.28;5212789;28;20565;-66
2023/06/18 02:54:43;;;;;;;9.63;7.30;;;;;;;20.35;59.06;101117.06;5212678;28;20022;-66
2023/06/18 02:57:14;;;;;;;8.40;7.40;;;;;;;20.39;59.71;101106.88;5216896;28;20079;-66
2023/06/18 02:59:46;;;;;;;10.33;7.53;;;;;;;20.33;58.19;101112.94;5213665;28;20025;-66
2023/06/18 03:02:17;;;;;;;9.60;7.97;;;;;;;20.30;59.08;101107.97;5215042;28;20030;-66
2023/06/18 03:04:49;;;;;;;11.60;8.30;;;;;;;20.23;59.71;101112.41;5213870;28;20033;-66
2023/06/18 03:07:21;;;;;;;10.40;7.87;;;;;;;20.18;59.35;101116.44;5213336;28;20025;-65
2023/06/18 03:09:52;;;;;;;9.63;8.10;;;;;;;20.12;60.28;101122.53;5213925;28;20018;-66
2023/06/18 03:12:24;;;;;;;8.13;7.33;;;;;;;20.12;60.31;101121.72;5216917;28;20025;-66
2023/06/18 03:14:55;;;;;;;9.17;7.53;;;;;;;19.98;61.74;101119.88;5214438;28;20030;-66
2023/06/18 03:17:27;;;;;;;8.98;7.63;;;;;;;19.95;61.60;101121.06;5213864;28;20033;-66
2023/06/18 03:19:58;;;;;;;10.93;7.83;;;;;;;19.88;63.03;101120.16;5211814;28;20062;-66
2023/06/18 03:22:29;;;;;;;8.43;7.53;;;;;;;19.86;63.23;101127.50;5213832;28;20025;-66
2023/06/18 03:25:01;;;;;;;10.43;7.13;;;;;;;19.81;63.65;101122.75;5220201;28;20022;-66
2023/06/18 03:27:32;;;;;;;9.00;7.97;;;;;;;19.81;63.33;101121.91;5215475;28;20121;-66
2023/06/18 03:30:03;;;;;;;8.93;8.03;;;;;;;19.85;64.58;101123.19;5215644;28;20470;-66
2023/06/18 03:32:35;;;;;;;10.90;8.10;;;;;;;19.83;64.65;101123.38;5216751;28;20526;-66
2023/06/18 03:35:08;;;;;;;7.90;7.10;;;;;;;19.81;63.77;101122.75;5214021;28;20589;-66
2023/06/18 03:37:40;;;;;;;9.32;7.90;;;;;;;19.81;63.00;101114.78;5214847;28;20034;-66
2023/06/18 03:40:11;;;;;;;9.83;8.57;;;;;;;19.87;62.98;101121.16;5218106;28;20026;-66
2023/06/18 03:42:42;;;;;;;10.53;7.57;;;;;;;19.89;63.85;101120.00;5215726;28;20100;-66
2023/06/18 03:45:14;;;;;;;8.57;7.67;;;;;;;19.96;63.67;101120.06;5215659;28;20045;-66
2023/06/18 03:47:45;;;;;;;10.18;8.60;;;;;;;19.97;61.81;101120.91;5215663;28;20021;-66
2023/06/18 03:50:16;;;;;;;9.68;8.00;;;;;;;20.03;62.56;101117.47;5222952;28;20037;-66
2023/06/18 03:52:47;;;;;;;10.43;8.77;;;;;;;19.98;61.53;101122.53;5212816;28;20423;-66
2023/06/18 03:55:19;;;;;;;9.00;8.10;;;;;;;20.04;62.87;101122.63;5216328;28;20033;-66
2023/06/18 03:57:51;;;;;;;10.37;8.33;;;;;;;19.99;62.63;101132.97;5219172;28;20018;-66
2023/06/18 04:00:22;;;;;;;10.63;7.97;;;;;;;20.02;62.94;101137.13;5218019;28;20550;-66
2023/06/18 04:02:53;;;;;;;9.73;8.27;;;;;;;20.03;62.94;101133.44;5215955;28;20463;-66
2023/06/18 04:05:25;;;;;;;9.63;7.83;;;;;;;20.01;63.20;101138.13;5217673;28;20052;-66
2023/06/18 04:07:56;;;;;;;9.10;8.30;;;;;;;19.95;64.16;101141.53;5217535;28;20061;-66
2023/06/18 04:10:27;;;;;;;10.97;8.03;;;;;;;19.90;63.98;101136.75;5216506;28;20422;-66
2023/06/18 04:12:59;;;;;;;9.18;8.27;;;;;;;19.97;64.66;101127.03;5213484;28;20045;-66
2023/06/18 04:15:30;;;;;;;12.17;8.43;;;;;;;19.94;66.19;101140.69;5211628;28;20025;-66
2023/06/18 04:18:02;;;;;;;9.73;8.82;;;;;;;19.97;64.88;101132.38;5212493;28;20059;-66
2023/06/18 04:20:33;;;;;;;9.77;8.40;;;;;;;19.92;64.61;101130.22;5215405;28;20554;-65
2023/06/18 04:23:06;;;;;;;9.90;8.90;;;;;;;20.00;64.92;101133.81;5217867;28;20516;-66
2023/06/18 04:25:37;;;;;;;10.93;8.43;;;;;;;20.01;64.00;101128.31;5216105;28;20025;-66
2023/06/18 04:28:08;;;;;;;12.03;8.63;;;;;;;20.04;62.56;101129.75;5220956;28;20466;-65
2023/06/18 04:30:40;;;;;;;9.50;8.60;;;;;;;19.98;63.35;101123.38;5216154;28;20034;-66
2023/06/18 04:33:11;;;;;;;10.63;9.57;;;;;;;20.10;64.05;101135.19;5215705;28;20501;-66
2023/06/18 04:35:44;;;;;;;13.87;9.10;;;;;;;20.12;61.33;101133.16;5212783;28;20360;-68
2023/06/18 04:38:15;;;;;;;11.18;9.30;;;;;;;20.15;61.33;101131.94;5217893;28;20034;-67
2023/06/18 04:40:46;;;;;;;9.57;8.67;;;;;;;20.20;61.61;101128.75;5219688;28;20060;-69
2023/06/18 04:43:18;;;;;;;10.33;9.23;;;;;;;20.13;59.78;101118.84;5214415;28;20060;-67
2023/06/18 04:45:51;;;;;;;11.97;8.70;;;;;;;20.20;61.69;101129.56;5213903;28;20037;-68
2023/06/18 04:48:23;;;;;;;10.43;9.32;;;;;;;20.17;60.99;101128.09;5213581;28;20065;-68
2023/06/18 04:50:54;;;;;;;12.47;9.03;;;;;;;20.15;58.54;101116.00;5216219;28;20124;-68
2023/06/18 04:53:26;;;;;;;13.03;10.30;;;;;;;20.26;60.04;101133.31;5216618;28;20408;-65
2023/06/18 04:55:57;;;;;;;10.07;9.10;;;;;;;20.36;58.79;101133.84;5214510;28;20022;-65
2023/06/18 04:58:28;;;;;;;11.40;10.20;;;;;;;20.42;57.04;101133.13;5214312;28;20160;-65
2023/06/18 05:01:01;;;;;;;12.50;10.03;;;;;;;20.39;58.24;101138.81;5214734;28;20501;-65
2023/06/18 05:03:32;;;;;;;12.80;10.68;;;;;;;20.45;57.91;101132.72;5211693;28;20026;-65
2023/06/18 05:06:04;;;;;;;10.07;9.13;;;;;;;20.52;57.86;101133.66;5213670;28;20453;-65
2023/06/18 05:08:35;;;;;;;11.80;10.70;;;;;;;20.58;57.64;101137.41;5212880;28;20033;-65
2023/06/18 05:11:06;;;;;;;11.43;10.23;;;;;;;20.57;59.33;101136.59;5213896;28;20056;-66
2023/06/18 05:13:38;;;;;;;11.27;10.07;;;;;;;20.65;57.69;101143.63;5219523;28;20052;-65
2023/06/18 05:16:09;;;;;;;14.07;9.90;;;;;;;20.72;59.17;101149.00;5214741;28;20062;-65
2023/06/18 05:18:40;;;;;;;11.43;10.43;;;;;;;20.86;58.20;101145.47;5215821;28;20032;-65
2023/06/18 05:21:12;;;;;;;11.20;9.17;;;;;;;20.89;58.45;101140.59;5210218;28;20193;-65
2023/06/18 05:23:44;;;;;;;9.97;8.77;;;;;;;20.97;53.39;101144.94;5215277;28;20079;-65
2023/06/18 05:26:15;;;;;;;11.13;9.20;;;;;;;21.11;55.44;101146.72;5213630;28;20422;-65
2023/06/18 05:28:47;;;;;;;11.47;9.80;;;;;;;21.18;53.94;101148.63;5219184;28;20052;-66
2023/06/18 05:31:18;;;;;;;10.23;9.15;;;;;;;21.23;51.90;101147.03;5215847;28;20029;-66
2023/06/18 05:33:50;;;;;;;9.73;8.67;;;;;;;21.36;50.99;101141.81;5213879;28;20038;-65
2023/06/18 05:36:24;;;;;;;10.80;9.37;;;;;;;21.47;51.35;101151.13;5212585;28;20078;-66
2023/06/18 05:38:59;;;;;;;10.20;8.95;;;;;;;21.56;50.58;101147.31;5212238;28;20041;-65
2023/06/18 05:41:30;;;;;;;9.98;8.95;;;;;;;21.67;49.13;101147.75;5209673;28;20436;-66
2023/06/18 05:44:01;;;;;;;9.03;8.23;;;;;;;21.86;48.78;101153.22;5211693;28;20045;-65
2023/06/18 05:46:33;;;;;;;9.60;8.60;;;;;;;21.96;48.52;101147.53;5212318;28;20064;-65
2023/06/18 05:49:04;;;;;;;9.50;8.50;;;;;;;22.08;47.19;101147.78;5215884;28;20033;-66
2023/06/18 05:51:35;;;;;;;10.23;8.47;;;;;;;22.13;46.79;101149.88;5213880;28;20053;-65
2023/06/18 05:54:07;;;;;;;12.57;8.83;;;;;;;22.21;46.44;101153.22;5215624;28;20037;-66
2023/06/18 05:56:38;;;;;;;10.97;8.50;;;;;;;22.29;45.27;101158.38;5210562;28;20090;-66
2023/06/18 05:59:10;;;;;;;11.17;7.93;;;;;;;22.38;45.98;101159.03;5213587;28;20051;-66
2023/06/18 06:01:41;;;;;;;9.40;8.03;;;;;;;22.51;45.10;101158.25;5214129;28;20037;-66
2023/06/18 06:04:12;;;;;;;9.17;7.63;;;;;;;22.59;45.61;101153.56;5213056;28;20110;-67
2023/06/18 06:06:44;;;;;;;9.80;7.03;;;;;;;22.78;43.19;101151.13;5214081;28;20498;-66
2023/06/18 06:09:15;;;;;;;9.70;6.30;;;;;;;22.93;42.71;101149.13;5217559;28;20030;-67
2023/06/18 06:11:47;;;;;;;9.37;6.60;;;;;;;22.99;42.92;101137.59;5214750;28;20041;-67
2023/06/18 06:14:19;;;;;;;10.27;7.03;;;;;;;23.16;44.23;101154.06;5211944;28;20045;-67
2023/06/18 06:16:57;;;;;;;8.33;6.07;;;;;;;23.32;43.22;101152.81;5214414;28;20030;-67
2023/06/18 06:19:28;;;;;;;9.13;6.50;;;;;;;23.46;42.50;101151.78;5214479;28;20025;-68
2023/06/18 06:22:00;;;;;;;10.00;6.27;;;;;;;23.62;41.41;101158.56;5215479;28;20030;-66
2023/06/18 06:24:31;;;;;;;7.23;5.87;;;;;;;23.64;43.02;101153.81;5217236;28;20094;-67
2023/06/18 06:27:02;;;;;;;6.87;5.37;;;;;;;23.78;40.42;101162.66;5214627;28;20060;-67
2023/06/18 06:29:34;;;;;;;7.20;5.03;;;;;;;23.75;41.31;101171.09;5200506;28;20128;-67
2023/06/18 06:32:05;;;;;;;5.57;5.00;;;;;;;23.74;38.86;101185.50;5209708;28;20030;-66
2023/06/18 06:34:37;;;;;;;6.37;4.83;;;;;;;23.63;38.99;101218.22;5217565;28;20036;-67
2023/06/18 06:37:08;;;;;;;6.77;4.63;;;;;;;23.59;39.72;101216.97;5213602;28;20154;-67
2023/06/18 06:39:39;;;;;;;6.23;4.87;;;;;;;23.52;40.69;101217.81;5211814;28;20394;-69
2023/06/18 06:42:12;;;;;;;8.67;5.57;;;;;;;23.47;41.45;101219.47;5211944;28;20053;-66
2023/06/18 06:44:43;;;;;;;6.93;5.30;;;;;;;23.44;41.98;101227.88;5212037;28;20075;-68
2023/06/18 06:47:16;;;;;;;6.68;5.57;;;;;;;23.36;42.13;101214.72;5215124;28;20812;-66
2023/06/18 06:49:48;;;;;;;6.78;5.07;;;;;;;23.37;43.22;101221.72;5217160;28;20030;-66
2023/06/18 06:52:19;;;;;;;7.73;5.50;;;;;;;23.43;43.60;101221.72;5214123;28;20060;-65
2023/06/18 06:54:51;;;;;;;7.07;6.00;;;;;;;23.46;42.94;101221.31;5218861;28;20021;-66
2023/06/18 06:57:22;;;;;;;7.30;6.03;;;;;;;23.50;42.49;101219.06;5212670;28;20041;-66
2023/06/18 06:59:53;;;;;;;10.20;5.50;;;;;;;23.55;41.50;101212.03;5216936;28;20038;-65
2023/06/18 07:02:25;;;;;;;6.87;5.40;;;;;;;23.62;41.67;101217.41;5214188;28;20042;-66
2023/06/18 07:04:56;;;;;;;8.63;6.37;;;;;;;23.61;42.00;101206.91;5212198;28;20109;-66
2023/06/18 07:07:27;;;;;;;9.13;6.63;;;;;;;23.70;41.52;101213.72;5211380;28;20037;-66
2023/06/18 07:09:59;;;;;;;7.60;6.27;;;;;;;23.80;41.69;101216.78;5216188;28;20041;-66
2023/06/18 07:12:30;;;;;;;8.50;6.43;;;;;;;23.82;41.21;101211.22;5216418;28;20029;-67
2023/06/18 07:15:01;;;;;;;11.60;6.93;;;;;;;23.83;41.77;101221.75;5211520;28;20053;-66
2023/06/18 07:17:33;;;;;;;10.33;6.43;;;;;;;23.89;41.93;101223.56;5210829;28;20037;-67
2023/06/18 07:20:04;;;;;;;10.07;6.50;;;;;;;23.97;42.54;101223.34;5209472;28;20118;-66
2023/06/18 07:22:36;;;;;;;10.38;6.10;;;;;;;24.00;41.66;101224.78;5211623;28;20041;-68
2023/06/18 07:25:07;;;;;;;8.03;6.20;;;;;;;24.07;42.63;101225.59;5211254;28;20041;-67
2023/06/18 07:27:39;;;;;;;7.13;6.43;;;;;;;24.13;43.13;101224.75;5213584;28;20493;-67
2023/06/18 07:30:10;;;;;;;12.67;7.20;;;;;;;24.21;42.67;101221.84;5211705;28;20520;-66
2023/06/18 07:32:42;;;;;;;11.07;6.57;;;;;;;24.27;42.92;101214.81;5211734;28;20057;-68
2023/06/18 07:35:13;;;;;;;15.47;6.90;;;;;;;24.33;42.62;101215.84;5215280;28;20030;-67
2023/06/18 07:37:44;;;;;;;30.07;7.40;;;;;;;24.46;43.55;101213.94;5213229;28;20280;-66
2023/06/18 07:40:16;;;;;;;10.03;6.83;;;;;;;24.51;43.34;101211.47;5214103;28;20270;-66
2023/06/18 07:42:47;;;;;;;8.23;6.57;;;;;;;24.58;41.95;101195.34;5214802;28;20522;-66
2023/06/18 07:45:18;;;;;;;8.50;7.03;;;;;;;24.80;44.03;101214.59;5213887;28;20485;-68
2023/06/18 07:47:49;;;;;;;8.73;6.23;;;;;;;24.75;42.37;101217.91;5214943;28;20029;-67
2023/06/18 07:50:21;;;;;;;14.43;5.97;;;;;;;24.87;42.92;101214.56;5213073;28;20033;-66
2023/06/18 07:52:53;;;;;;;9.63;6.53;;;;;;;24.93;43.13;101211.84;5215625;28;20397;-66
2023/06/18 07:55:24;;;;;;;7.47;5.70;;;;;;;24.97;42.44;101210.38;5211993;28;20573;-67
2023/06/18 07:57:55;;;;;;;8.73;6.47;;;;;;;25.09;41.97;101210.50;5213412;28;20056;-68
2023/06/18 08:00:27;;;;;;;10.90;6.80;;;;;;;25.30;43.45;101219.22;5213954;28;20029;-66
2023/06/18 08:02:58;;;;;;;9.47;6.13;;;;;;;25.28;42.23;101211.41;5216049;28;20504;-67
2023/06/18 08:05:29;;;;;;;8.67;6.57;;;;;;;25.47;42.72;101209.59;5194295;28;20439;-66
2023/06/18 08:08:01;;;;;;;9.60;6.20;;;;;;;25.50;42.89;101211.84;5210517;28;20042;-67
2023/06/18 08:10:32;;;;;;;7.17;5.67;;;;;;;25.62;42.80;101214.63;5208087;28;20033;-66
2023/06/18 08:13:03;;;;;;;6.03;5.40;;;;;;;25.73;42.53;101213.91;5190019;28;20056;-65
2023/06/18 08:15:34;;;;;;;6.30;4.93;;;;;;;25.96;42.26;101202.56;5213882;28;20137;-67
2023/06/18 08:18:06;;;;;;;11.33;5.87;;;;;;;26.11;40.87;101211.06;5212015;28;20030;-68
2023/06/18 08:20:37;;;;;;;9.27;5.70;;;;;;;25.94;41.17;101210.00;5219319;28;20344;-66
2023/06/18 08:23:08;;;;;;;11.17;5.53;;;;;;;26.11;42.25;101205.69;5214266;28;20040;-66
2023/06/18 08:25:39;;;;;;;9.17;5.83;;;;;;;26.10;40.99;101196.00;5215502;28;20122;-68
2023/06/18 08:28:11;;;;;;;7.67;5.37;;;;;;;26.15;42.15;101192.63;5217945;28;20030;-66
2023/06/18 08:30:42;;;;;;;7.80;5.63;;;;;;;26.28;42.06;101195.16;5219211;28;20033;-67
2023/06/18 08:33:13;;;;;;;6.60;5.30;;;;;;;26.24;41.57;101199.31;5213542;28;20034;-68
2023/06/18 08:35:44;;;;;;;6.53;5.40;;;;;;;26.34;41.68;101199.63;5212706;28;20116;-66
2023/06/18 08:38:16;;;;;;;7.97;5.20;;;;;;;26.30;41.88;101192.25;5211600;28;20033;-66
2023/06/18 08:40:55;;;;;;;5.97;5.37;;;;;;;26.41;41.75;101189.63;5214023;28;20050;-66
2023/06/18 08:43:31;;;;;;;6.50;4.97;;;;;;;26.22;42.68;101187.19;5210908;28;20613;-67
2023/06/18 08:46:10;;;;;;;6.80;5.72;;;;;;;26.31;42.95;101197.38;5216649;28;20034;-67
2023/06/18 08:48:45;;;;;;;11.80;5.68;;;;;;;26.26;43.10;101196.44;5218337;28;20094;-67
2023/06/18 08:51:17;;;;;;;15.88;5.13;;;;;;;26.25;42.78;101200.16;5214208;28;20026;-65
2023/06/18 08:54:22;;;;;;;8.60;5.82;;;;;;;26.54;42.64;101199.41;5214594;28;20151;-66
2023/06/18 08:56:57;;;;;;;7.32;5.75;;;;;;;26.13;42.40;101181.28;5204082;28;20588;-66
2023/06/18 08:59:31;;;;;;;10.30;5.63;;;;;;;26.08;43.01;101195.38;5217549;28;20112;-67
2023/06/18 09:02:04;;;;;;;10.02;5.78;;;;;;;26.10;43.26;101197.84;5209650;28;20467;-66
2023/06/18 09:04:37;;;;;;;10.77;6.03;;;;;;;26.08;44.27;101202.63;5213901;28;20033;-66
2023/06/18 09:07:09;;;;;;;8.70;5.55;;;;;;;26.11;44.56;101199.50;5214135;28;20030;-68
2023/06/18 09:09:40;;;;;;;9.73;5.53;;;;;;;26.20;42.86;101195.47;5218053;28;20128;-66
2023/06/18 09:12:11;;;;;;;7.77;5.27;;;;;;;26.18;42.88;101198.38;5211531;28;20026;-66
2023/06/18 09:14:43;;;;;;;7.60;5.70;;;;;;;26.36;44.47;101197.53;5213184;28;20500;-67
2023/06/18 09:17:16;;;;;;;10.10;5.80;;;;;;;26.36;42.88;101204.75;5213470;28;20676;-67
2023/06/18 09:19:48;;;;;;;8.65;5.35;;;;;;;26.34;43.25;101201.50;5212126;28;20029;-67
2023/06/18 09:22:20;;;;;;;5.65;5.18;;;;;;;26.44;43.60;101204.44;5211363;28;20081;-66
2023/06/18 09:24:58;;;;;;;8.18;5.40;;;;;;;26.58;43.60;101199.75;5210790;28;20041;-66
2023/06/18 09:27:33;;;;;;;5.90;5.30;;;;;;;26.48;44.52;101204.84;5220527;28;20539;-66
2023/06/18 09:30:16;;;;;;;6.72;5.13;;;;;;;26.44;44.13;101205.28;5211201;28;20033;-67
2023/06/18 09:32:48;;;;;;;7.40;5.45;;;;;;;26.31;44.38;101202.75;5212192;28;20079;-67
2023/06/18 09:35:20;;;;;;;6.17;5.07;;;;;;;26.38;43.12;101200.81;5212678;28;20026;-67
2023/06/18 09:37:52;;;;;;;7.43;5.47;;;;;;;26.35;43.69;101200.44;5214114;28;20045;-67
2023/06/18 09:40:25;;;;;;;6.47;4.95;;;;;;;26.32;44.20;101201.69;5210714;28;20033;-66
2023/06/18 09:43:00;;;;;;;7.28;5.95;;;;;;;26.26;44.30;101205.31;5210890;28;20384;-67
2023/06/18 09:45:31;;;;;;;6.10;5.50;;;;;;;26.23;46.31;101208.44;5213265;28;20104;-67
2023/06/18 09:48:03;;;;;;;6.23;5.37;;;;;;;26.23;48.95;101207.63;5217269;28;20484;-67
2023/06/18 09:50:35;;;;;;;6.32;5.72;;;;;;;26.14;50.73;101204.44;5211251;28;20037;-67
2023/06/18 09:53:16;;;;;;;7.68;6.38;;;;;;;26.37;50.72;101199.19;5217308;28;20481;-66
2023/06/18 09:55:48;;;;;;;7.95;6.15;;;;;;;26.08;53.48;101199.94;5219008;28;20026;-66
2023/06/18 09:58:39;;;;;;;8.07;6.90;;;;;;;26.28;51.61;101199.69;5212497;28;20029;-66
2023/06/18 10:01:11;;;;;;;8.65;6.65;;;;;;;25.85;55.77;101198.75;5212069;28;20305;-67
2023/06/18 10:03:44;;;;;;;8.10;6.13;;;;;;;25.69;54.40;101197.44;5213922;28;20699;-66
2023/06/18 10:06:21;;;;;;;8.43;6.82;;;;;;;25.78;57.53;101184.56;5211674;28;20424;-66
2023/06/18 10:08:57;;;;;;;7.28;5.88;;;;;;;25.75;61.24;101192.22;5212120;28;20390;-67
2023/06/18 10:11:30;;;;;;;6.93;6.22;;;;;;;25.72;63.72;101185.41;5212128;28;20069;-67
2023/06/18 10:14:13;;;;;;;9.35;6.28;;;;;;;25.80;60.28;101171.75;5211404;28;20479;-66
2023/06/18 10:16:47;;;;;;;;;;;;;;;26.45;52.97;101173.88;5214189;28;20037;-68
2023/06/18 10:19:24;;;;;;;7.85;6.05;;;;;;;25.68;58.98;101174.34;5209762;28;20322;-66
2023/06/18 10:21:58;;;;;;;7.93;5.85;;;;;;;25.70;57.10;101160.69;5214078;28;20541;-67
2023/06/18 10:24:41;;;;;;;7.00;6.18;;;;;;;25.62;61.39;101156.44;5199405;28;20025;-66
2023/06/18 10:27:14;;;;;;;8.10;6.60;;;;;;;25.64;59.74;101156.19;5210338;28;20042;-67
2023/06/18 10:29:46;;;;;;;7.32;6.07;;;;;;;25.64;61.93;101148.97;5213282;28;20478;-67
2023/06/18 10:32:18;;;;;;;7.93;6.00;;;;;;;25.69;64.07;101149.13;5217790;28;20026;-67
2023/06/18 10:34:52;;;;;;;8.57;6.30;;;;;;;25.68;58.87;101141.28;5215153;28;20560;-68
2023/06/18 10:37:25;;;;;;;9.88;6.55;;;;;;;25.81;58.13;101149.25;5210515;28;20049;-67
2023/06/18 10:39:56;;;;;;;7.88;6.55;;;;;;;25.72;60.57;101154.06;5215875;28;20049;-66
2023/06/18 10:42:30;;;;;;;7.30;6.60;;;;;;;25.93;60.56;101157.34;5215318;28;20419;-66
2023/06/18 10:45:15;;;;;;;8.25;6.57;;;;;;;26.11;57.10;101153.84;5210003;28;20061;-66
2023/06/18 10:47:46;;;;;;;8.60;6.50;;;;;;;25.85;57.38;101153.09;5212013;28;20029;-67
2023/06/18 10:50:18;;;;;;;6.47;5.87;;;;;;;26.03;55.99;101146.91;5213272;28;20018;-66
2023/06/18 10:52:50;;;;;;;7.57;6.40;;;;;;;26.09;54.53;101151.38;5218574;28;20060;-67
2023/06/18 10:55:21;;;;;;;7.22;5.75;;;;;;;26.26;53.71;101153.47;5213984;28;20029;-68
2023/06/18 10:58:03;;;;;;;6.27;5.63;;;;;;;26.48;52.13;101143.03;5210210;28;20037;-69
2023/06/18 11:00:41;;;;;;;7.30;6.38;;;;;;;26.41;52.82;101143.94;5214639;28;20041;-66
2023/06/18 11:03:15;;;;;;;8.25;6.80;;;;;;;26.40;53.53;101147.69;5206661;28;20045;-67
2023/06/18 11:05:48;;;;;;;7.22;6.50;;;;;;;26.34;56.42;101142.41;5214540;28;20043;-67
2023/06/18 11:08:29;;;;;;;6.90;5.78;;;;;;;26.54;52.78;101142.16;5209863;28;20086;-68
2023/06/18 11:11:02;;;;;;;8.65;5.97;;;;;;;26.37;54.48;101137.38;5214172;28;20118;-67
2023/06/18 11:13:50;;;;;;;6.88;5.90;;;;;;;26.56;53.80;101126.63;5214160;28;20468;-67
2023/06/18 11:16:23;;;;;;;8.70;5.90;;;;;;;26.27;52.07;101123.69;5211811;28;20561;-68
2023/06/18 11:18:58;;;;;;;7.18;5.55;;;;;;;26.42;54.93;101123.28;5214021;28;20048;-67
2023/06/18 11:21:31;;;;;;;6.22;5.07;;;;;;;26.44;54.00;101121.16;5206493;28;20070;-67
2023/06/18 11:24:04;;;;;;;6.30;5.15;;;;;;;26.40;52.92;101111.91;5206121;28;20033;-66
2023/06/18 11:26:35;;;;;;;;;;;;;;;27.11;49.93;101115.63;5208995;28;20863;-66
2023/06/18 11:29:07;;;;;;;6.63;5.22;;;;;;;26.53;57.01;101111.78;5202496;28;19920;-67
2023/06/18 11:31:38;;;;;;;6.53;5.00;;;;;;;26.26;54.29;101115.84;5201094;28;20033;-65
2023/06/18 11:34:11;;;;;;;5.93;5.03;;;;;;;26.35;54.89;101114.47;5208218;28;20029;-69
2023/06/18 11:36:42;;;;;;;5.93;4.72;;;;;;;26.32;55.21;101107.69;5202607;28;20026;-68
2023/06/18 11:39:14;;;;;;;6.73;4.80;;;;;;;26.32;55.09;101107.69;5210758;28;20041;-70
2023/06/18 11:41:45;;;;;;;6.97;5.53;;;;;;;26.47;57.85;101096.56;5213815;28;20037;-65
2023/06/18 11:44:24;;;;;;;6.73;6.03;;;;;;;26.53;56.52;101092.97;5209203;28;20072;-69
2023/06/18 11:47:00;;;;;;;7.57;6.57;;;;;;;26.40;55.29;101090.44;5210580;28;20485;-65
2023/06/18 11:49:31;;;;;;;12.02;7.32;;;;;;;26.36;58.53;101094.63;5209120;28;20117;-68